createdAt,value
2023-01-04T00:02:03.883Z,1.97
2023-01-04T00:04:33.688Z,2.90
2023-01-04T00:07:02.127Z,3.00
2023-01-04T00:09:30.572Z,2.20
2023-01-04T00:11:59.034Z,2.03
2023-01-04T00:14:27.614Z,2.50
2023-01-04T00:16:56.083Z,2.33
2023-01-04T00:19:24.679Z,1.83
2023-01-04T00:21:54.527Z,1.73
2023-01-04T00:24:23.108Z,1.93
2023-01-04T00:26:51.587Z,1.90
2023-01-04T00:29:20.057Z,2.00
2023-01-04T00:31:48.636Z,2.80
2023-01-04T00:34:18.922Z,1.93
2023-01-04T00:36:47.686Z,2.03
2023-01-04T00:39:18.231Z,2.30
2023-01-04T00:41:58.787Z,2.10
2023-01-04T00:44:28.165Z,2.17
2023-01-04T00:46:57.057Z,1.80
2023-01-04T00:49:25.837Z,2.17
2023-01-04T00:51:54.462Z,2.30
2023-01-04T00:54:24.551Z,1.70
2023-01-04T00:56:53.373Z,2.17
2023-01-04T00:59:22.706Z,2.30
2023-01-04T01:01:52.226Z,1.87
2023-01-04T01:04:24.146Z,2.00
2023-01-04T01:06:53.354Z,1.90
2023-01-04T01:09:23.854Z,1.87
2023-01-04T01:11:53.439Z,2.00
2023-01-04T01:14:23.738Z,2.10
2023-01-04T01:16:55.841Z,1.80
2023-01-04T01:19:24.848Z,2.00
2023-01-04T01:21:53.364Z,2.40
2023-01-04T01:24:22.110Z,1.37
2023-01-04T01:26:51.957Z,1.60
2023-01-04T01:29:20.377Z,1.73
2023-01-04T01:31:48.991Z,1.80
2023-01-04T01:34:17.551Z,2.03
2023-01-04T01:36:46.091Z,1.90
2023-01-04T01:39:14.742Z,2.10
2023-01-04T01:41:43.463Z,1.87
2023-01-04T01:44:45.450Z,2.50
2023-01-04T01:47:18.592Z,1.80
2023-01-04T01:49:49.252Z,2.23
2023-01-04T01:52:22.776Z,2.13
2023-01-04T01:54:55.277Z,2.33
2023-01-04T01:57:28.044Z,1.90
2023-01-04T02:00:00.170Z,1.83
2023-01-04T02:02:30.581Z,2.53
2023-01-04T02:05:00.543Z,2.33
2023-01-04T02:07:29.919Z,2.13
2023-01-04T02:09:59.322Z,1.90
2023-01-04T02:12:27.845Z,2.00
2023-01-04T02:14:56.306Z,2.27
2023-01-04T02:17:34.726Z,2.63
2023-01-04T02:20:38.842Z,2.40
2023-01-04T02:23:52.378Z,2.20
2023-01-04T02:27:00.688Z,2.30
2023-01-04T02:30:10.967Z,2.03
2023-01-04T02:32:59.422Z,1.90
2023-01-04T02:35:34.565Z,2.50
2023-01-04T02:38:11.555Z,2.63
2023-01-04T02:40:48.916Z,2.50
2023-01-04T02:43:43.135Z,2.40
2023-01-04T02:46:17.322Z,2.73
2023-01-04T02:49:04.485Z,2.93
2023-01-04T02:51:34.975Z,2.80
2023-01-04T02:54:07.957Z,2.90
2023-01-04T02:56:58.374Z,3.30
2023-01-04T02:59:51.895Z,2.80
2023-01-04T03:03:01.666Z,2.40
2023-01-04T03:05:58.534Z,3.27
2023-01-04T03:08:34.125Z,2.90
2023-01-04T03:11:05.806Z,3.17
2023-01-04T03:13:38.789Z,4.00
2023-01-04T03:16:12.163Z,3.40
2023-01-04T03:18:45.543Z,3.10
2023-01-04T03:21:17.656Z,3.63
2023-01-04T03:24:05.387Z,3.60
2023-01-04T03:26:55.548Z,3.67
2023-01-04T03:29:50.516Z,3.70
2023-01-04T03:32:49.146Z,3.80
2023-01-04T03:35:28.193Z,4.07
2023-01-04T03:38:22.815Z,4.57
2023-01-04T03:41:16.465Z,4.07
2023-01-04T03:44:10.533Z,4.67
2023-01-04T03:47:02.169Z,4.00
2023-01-04T03:49:37.760Z,4.57
2023-01-04T03:52:08.801Z,4.47
2023-01-04T03:54:42.410Z,4.57
2023-01-04T03:57:12.964Z,4.80
2023-01-04T03:59:46.642Z,3.93
2023-01-04T04:02:19.375Z,4.23
2023-01-04T04:05:05.468Z,3.67
2023-01-04T04:07:51.380Z,4.23
2023-01-04T04:10:21.186Z,3.77
2023-01-04T04:12:49.852Z,2.77
2023-01-04T04:15:18.479Z,3.90
2023-01-04T04:17:46.907Z,3.33
2023-01-04T04:20:15.489Z,3.33
2023-01-04T04:22:44.114Z,3.67
2023-01-04T04:25:12.532Z,3.20
2023-01-04T04:27:42.391Z,3.60
2023-01-04T04:30:11.396Z,3.70
2023-01-04T04:32:39.885Z,3.77
2023-01-04T04:35:09.041Z,3.80
2023-01-04T04:37:37.553Z,3.73
2023-01-04T04:40:06.512Z,3.17
2023-01-04T04:42:33.987Z,3.33
2023-01-04T04:45:03.789Z,2.97
2023-01-04T04:47:32.211Z,2.83
2023-01-04T04:50:00.602Z,2.37
2023-01-04T04:52:29.065Z,3.20
2023-01-04T04:54:57.518Z,2.67
2023-01-04T04:57:26.093Z,2.73
2023-01-04T04:59:54.542Z,3.30
2023-01-04T05:02:24.469Z,2.77
2023-01-04T05:04:53.099Z,3.37
2023-01-04T05:07:21.547Z,3.23
2023-01-04T05:09:50.006Z,3.37
2023-01-04T05:12:35.840Z,3.47
2023-01-04T05:15:04.537Z,3.87
2023-01-04T05:17:34.349Z,3.80
2023-01-04T05:20:02.951Z,3.53
2023-01-04T05:22:31.541Z,3.43
2023-01-04T05:25:00.005Z,3.80
2023-01-04T05:27:28.487Z,4.03
2023-01-04T05:30:14.271Z,4.20
2023-01-04T05:32:44.471Z,4.43
2023-01-04T05:35:12.954Z,4.77
2023-01-04T05:37:41.405Z,4.40
2023-01-04T05:40:10.818Z,3.30
2023-01-04T05:42:39.424Z,4.70
2023-01-04T05:45:08.560Z,4.80
2023-01-04T05:47:37.335Z,4.60
2023-01-04T05:50:08.536Z,4.60
2023-01-04T05:52:37.752Z,5.57
2023-01-04T05:55:07.114Z,5.23
2023-01-04T05:57:35.568Z,4.20
2023-01-04T06:00:04.898Z,3.77
2023-01-04T06:02:43.082Z,4.60
2023-01-04T06:05:13.317Z,4.03
2023-01-04T06:07:42.356Z,4.63
2023-01-04T06:10:12.972Z,3.90
2023-01-04T06:12:41.885Z,3.97
2023-01-04T06:15:12.083Z,3.90
2023-01-04T06:17:41.092Z,3.27
2023-01-04T06:20:13.079Z,3.67
2023-01-04T06:22:42.993Z,3.17
2023-01-04T06:25:11.919Z,3.93
2023-01-04T06:27:40.393Z,3.87
2023-01-04T06:30:10.034Z,3.43
2023-01-04T06:32:38.512Z,3.03
2023-01-04T06:35:07.434Z,3.57
2023-01-04T06:37:37.264Z,3.33
2023-01-04T06:40:06.907Z,3.17
2023-01-04T06:42:47.364Z,3.03
2023-01-04T06:45:17.251Z,3.30
2023-01-04T06:47:47.858Z,3.33
2023-01-04T06:50:16.557Z,3.00
2023-01-04T06:52:46.393Z,2.87
2023-01-04T06:55:14.844Z,2.70
2023-01-04T06:57:43.319Z,3.57
2023-01-04T07:00:13.068Z,2.93
2023-01-04T07:03:13.991Z,2.63
2023-01-04T07:05:30.182Z,2.70
2023-01-04T07:08:07.722Z,2.83
2023-01-04T07:10:36.966Z,3.90
2023-01-04T07:13:05.677Z,3.50
2023-01-04T07:15:38.561Z,3.47
2023-01-04T07:18:09.177Z,2.80
2023-01-04T07:20:38.149Z,3.27
2023-01-04T07:23:09.126Z,2.53
2023-01-04T07:25:37.913Z,3.10
2023-01-04T07:28:06.586Z,3.23
2023-01-04T07:30:35.129Z,3.43
2023-01-04T07:33:03.718Z,3.03
2023-01-04T07:35:32.230Z,2.90
2023-01-04T07:38:00.777Z,2.50
2023-01-04T07:40:30.594Z,2.60
2023-01-04T07:43:00.306Z,2.40
2023-01-04T07:45:28.818Z,2.67
2023-01-04T07:47:58.950Z,1.90
2023-01-04T07:50:27.710Z,2.43
2023-01-04T07:52:57.128Z,2.13
2023-01-04T07:55:25.547Z,2.00
2023-01-04T07:57:55.771Z,2.20
2023-01-04T08:00:24.441Z,2.50
2023-01-04T08:02:53.031Z,2.57
2023-01-04T08:05:22.897Z,2.27
2023-01-04T08:07:51.790Z,2.53
2023-01-04T08:10:20.244Z,2.87
2023-01-04T08:12:48.676Z,2.10
2023-01-04T08:15:19.547Z,2.57
2023-01-04T08:17:47.988Z,2.60
2023-01-04T08:20:16.559Z,2.37
2023-01-04T08:22:45.076Z,2.30
2023-01-04T08:25:13.503Z,2.17
2023-01-04T08:27:42.380Z,2.30
2023-01-04T08:30:11.650Z,2.10
2023-01-04T08:32:42.119Z,1.97
2023-01-04T08:35:10.905Z,2.37
2023-01-04T08:37:39.393Z,2.20
2023-01-04T08:40:09.514Z,2.43
2023-01-04T08:42:38.113Z,1.77
2023-01-04T08:45:07.745Z,2.80
2023-01-04T08:47:36.196Z,1.57
2023-01-04T08:50:10.790Z,1.63
2023-01-04T08:52:39.653Z,1.47
2023-01-04T08:55:13.199Z,1.93
2023-01-04T08:57:43.439Z,1.97
2023-01-04T09:00:12.940Z,1.73
2023-01-04T09:02:41.610Z,1.50
2023-01-04T09:05:22.229Z,1.77
2023-01-04T09:07:51.675Z,1.77
2023-01-04T09:10:20.278Z,1.50
2023-01-04T09:12:48.812Z,1.73
2023-01-04T09:15:18.444Z,1.77
2023-01-04T09:18:20.470Z,1.70
2023-01-04T09:20:38.361Z,2.10
2023-01-04T09:23:06.764Z,2.00
2023-01-04T09:25:35.211Z,2.43
2023-01-04T09:28:03.750Z,2.27
2023-01-04T09:30:32.488Z,2.83
2023-01-04T09:33:01.009Z,2.57
2023-01-04T09:35:29.453Z,2.77
2023-01-04T09:37:59.359Z,3.53
2023-01-04T09:40:34.445Z,2.83
2023-01-04T09:43:20.987Z,2.60
2023-01-04T09:45:55.601Z,3.20
2023-01-04T09:48:30.175Z,2.27
2023-01-04T09:51:02.452Z,2.27
2023-01-04T09:53:36.437Z,2.23
2023-01-04T09:56:10.928Z,2.33
2023-01-04T09:58:42.195Z,2.83
2023-01-04T10:01:16.202Z,2.60
2023-01-04T10:03:52.895Z,2.70
2023-01-04T10:06:21.444Z,2.50
2023-01-04T10:08:51.389Z,2.50
2023-01-04T10:11:31.073Z,2.40
2023-01-04T10:14:17.982Z,3.20
2023-01-04T10:17:28.098Z,2.80
2023-01-04T10:23:22.783Z,2.27
2023-01-04T10:25:57.581Z,2.10
2023-01-04T10:28:39.345Z,2.40
2023-01-04T10:31:39.780Z,1.80
2023-01-04T10:34:18.429Z,2.10
2023-01-04T10:36:48.715Z,2.10
2023-01-04T10:39:18.976Z,2.03
2023-01-04T10:41:54.604Z,2.47
2023-01-04T10:44:29.909Z,1.83
2023-01-04T10:47:05.432Z,1.50
2023-01-04T10:49:41.232Z,1.60
2023-01-04T10:52:17.215Z,2.20
2023-01-04T10:54:49.875Z,1.50
2023-01-04T10:57:24.657Z,1.40
2023-01-04T10:59:58.081Z,2.00
2023-01-04T11:02:34.640Z,2.23
2023-01-04T11:05:12.834Z,1.97
2023-01-04T11:07:46.686Z,1.73
2023-01-04T11:10:20.626Z,1.70
2023-01-04T11:12:50.662Z,1.47
2023-01-04T11:15:19.245Z,1.43
2023-01-04T11:17:49.293Z,1.40
2023-01-04T11:20:17.911Z,1.40
2023-01-04T11:22:54.182Z,1.40
2023-01-04T11:25:34.975Z,1.80
2023-01-04T11:28:14.236Z,1.70
2023-01-04T11:30:52.264Z,1.90
2023-01-04T11:33:22.522Z,1.80
2023-01-04T11:35:52.630Z,1.60
2023-01-04T11:38:22.941Z,1.80
2023-01-04T11:41:00.113Z,2.00
2023-01-04T11:43:30.938Z,2.17
2023-01-04T11:46:02.793Z,1.80
2023-01-04T11:48:41.828Z,2.17
2023-01-04T11:51:33.879Z,2.10
2023-01-04T11:54:05.640Z,1.90
2023-01-04T11:56:37.452Z,2.10
2023-01-04T11:59:16.663Z,2.07
2023-01-04T12:01:53.028Z,2.10
2023-01-04T12:04:23.148Z,2.07
2023-01-04T12:06:53.304Z,3.23
2023-01-04T12:09:22.716Z,2.60
2023-01-04T12:11:53.109Z,2.40
2023-01-04T12:14:26.164Z,2.33
2023-01-04T12:17:07.448Z,2.10
2023-01-04T12:19:37.529Z,2.67
2023-01-04T12:22:15.911Z,1.97
2023-01-04T12:24:46.431Z,2.53
2023-01-04T12:27:16.034Z,2.03
2023-01-04T12:29:55.832Z,1.90
2023-01-04T12:32:45.342Z,1.60
2023-01-04T12:36:03.434Z,1.83
2023-01-04T12:39:05.456Z,2.33
2023-01-04T12:42:18.728Z,2.20
2023-01-04T12:45:24.038Z,1.80
2023-01-04T12:48:11.509Z,1.67
2023-01-04T12:51:46.945Z,1.40
2023-01-04T12:54:31.827Z,1.83
2023-01-04T12:57:25.669Z,1.97
2023-01-04T12:59:56.000Z,2.07
2023-01-04T13:02:27.507Z,2.53
2023-01-04T13:05:25.777Z,1.67
2023-01-04T13:07:49.115Z,2.63
2023-01-04T13:10:29.893Z,1.33
2023-01-04T13:13:22.929Z,1.67
2023-01-04T13:16:03.033Z,2.37
2023-01-04T13:18:46.028Z,1.33
2023-01-04T13:21:18.084Z,2.20
2023-01-04T13:23:52.373Z,1.50
2023-01-04T13:26:35.063Z,1.60
2023-01-04T13:29:08.963Z,1.20
2023-01-04T13:31:52.647Z,1.63
2023-01-04T13:34:25.300Z,1.30
2023-01-04T13:37:05.792Z,1.50
2023-01-04T13:39:34.715Z,1.53
2023-01-04T13:42:04.880Z,2.03
2023-01-04T13:45:20.208Z,1.83
2023-01-04T13:47:51.586Z,1.20
2023-01-04T13:50:29.508Z,1.67
2023-01-04T13:53:13.542Z,1.80
2023-01-04T13:55:41.999Z,1.60
2023-01-04T13:58:18.760Z,1.90
2023-01-04T14:00:51.365Z,2.60
2023-01-04T14:03:36.059Z,2.03
2023-01-04T14:06:20.363Z,1.63
2023-01-04T14:08:57.161Z,2.70
2023-01-04T14:11:46.650Z,2.20
2023-01-04T14:14:31.351Z,1.70
2023-01-04T14:17:15.433Z,2.20
2023-01-04T14:19:47.404Z,1.90
2023-01-04T14:22:37.682Z,1.30
2023-01-04T14:25:48.592Z,2.40
2023-01-04T14:28:28.801Z,2.33
2023-01-04T14:31:13.079Z,1.90
2023-01-04T14:33:45.474Z,1.67
2023-01-04T14:36:18.433Z,1.07
2023-01-04T14:38:55.472Z,2.13
2023-01-04T14:41:26.657Z,1.83
2023-01-04T14:44:06.887Z,2.07
2023-01-04T14:46:35.352Z,2.03
2023-01-04T14:49:03.811Z,2.03
2023-01-04T14:51:34.725Z,1.23
2023-01-04T14:54:04.785Z,2.13
2023-01-04T14:56:33.827Z,2.93
2023-01-04T14:59:02.357Z,1.43
2023-01-04T15:01:31.001Z,2.03
2023-01-04T15:03:59.603Z,2.30
2023-01-04T15:06:28.095Z,2.37
2023-01-04T15:08:56.532Z,2.30
2023-01-04T15:11:26.633Z,1.73
2023-01-04T15:13:55.080Z,1.70
2023-01-04T15:16:23.540Z,1.90
2023-01-04T15:18:52.096Z,2.20
2023-01-04T15:21:20.612Z,2.50
2023-01-04T15:23:49.061Z,2.33
2023-01-04T15:26:17.524Z,2.60
2023-01-04T15:28:47.394Z,3.43
2023-01-04T15:31:17.219Z,1.87
2023-01-04T15:33:48.197Z,2.33
2023-01-04T15:36:23.709Z,2.80
2023-01-04T15:38:55.666Z,1.97
2023-01-04T15:41:41.405Z,3.70
2023-01-04T15:44:12.350Z,3.97
2023-01-04T15:46:41.112Z,2.13
2023-01-04T15:49:16.635Z,2.93
2023-01-04T15:51:45.888Z,2.50
2023-01-04T15:54:14.409Z,2.93
2023-01-04T15:56:42.813Z,3.27
2023-01-04T15:59:13.682Z,3.90
2023-01-04T16:01:43.283Z,2.57
2023-01-04T16:04:12.479Z,3.23
2023-01-04T16:06:41.127Z,3.50
2023-01-04T16:09:09.626Z,2.87
2023-01-04T16:11:58.126Z,3.53
2023-01-04T16:14:27.974Z,3.27
2023-01-04T16:16:56.956Z,3.87
2023-01-04T16:19:25.405Z,3.10
2023-01-04T16:21:53.885Z,2.80
2023-01-04T16:25:00.452Z,3.67
2023-01-04T16:27:10.799Z,3.23
2023-01-04T16:29:40.587Z,4.20
2023-01-04T16:32:09.031Z,3.40
2023-01-04T16:34:37.859Z,4.00
2023-01-04T16:37:06.676Z,2.97
2023-01-04T16:40:05.321Z,2.97
2023-01-04T16:42:23.944Z,3.50
2023-01-04T16:44:53.912Z,2.83
2023-01-04T16:47:22.422Z,3.70
2023-01-04T16:49:54.349Z,3.30
2023-01-04T16:52:26.673Z,2.77
2023-01-04T16:54:55.203Z,3.13
2023-01-04T16:57:23.957Z,3.07
2023-01-04T16:59:53.791Z,3.00
2023-01-04T17:02:23.255Z,6.70
2023-01-04T17:04:55.397Z,3.63
2023-01-04T17:07:24.257Z,3.17
2023-01-04T17:09:53.003Z,3.50
2023-01-04T17:15:43.474Z,3.27
2023-01-04T17:18:01.219Z,4.43
2023-01-04T17:20:29.683Z,3.03
2023-01-04T17:22:58.203Z,3.10
2023-01-04T17:25:26.663Z,3.90
2023-01-04T17:27:55.108Z,3.90
2023-01-04T17:30:25.034Z,3.67
2023-01-04T17:32:53.509Z,3.70
2023-01-04T17:35:21.968Z,3.70
2023-01-04T17:37:50.482Z,3.93
2023-01-04T17:40:22.983Z,3.53
2023-01-04T17:42:52.146Z,3.70
2023-01-04T17:45:21.335Z,3.07
2023-01-04T17:47:51.580Z,4.30
2023-01-04T17:50:20.641Z,4.30
2023-01-04T17:52:50.646Z,4.13
2023-01-04T17:55:19.573Z,4.10
2023-01-04T17:57:48.097Z,3.47
2023-01-04T18:00:17.156Z,3.90
2023-01-04T18:02:45.875Z,4.03
2023-01-04T18:05:16.019Z,3.80
2023-01-04T18:07:44.491Z,4.73
2023-01-04T18:10:21.493Z,4.80
2023-01-04T18:13:01.716Z,4.17
2023-01-04T18:15:30.305Z,4.70
2023-01-04T18:17:58.773Z,4.53
2023-01-04T18:20:28.677Z,4.40
2023-01-04T18:22:57.101Z,4.30
2023-01-04T18:25:26.368Z,4.33
2023-01-04T18:27:54.825Z,4.00
2023-01-04T18:30:23.286Z,4.83
2023-01-04T18:32:51.980Z,4.60
2023-01-04T18:35:20.403Z,4.07
2023-01-04T18:37:50.312Z,4.13
2023-01-04T18:40:18.918Z,5.57
2023-01-04T18:42:48.350Z,4.43
2023-01-04T18:45:17.606Z,4.00
2023-01-04T18:47:47.990Z,5.17
2023-01-04T18:50:16.933Z,4.13
2023-01-04T18:52:45.730Z,4.57
2023-01-04T18:55:16.019Z,4.83
2023-01-04T18:57:44.547Z,4.73
2023-01-04T19:00:14.356Z,5.80
2023-01-04T19:02:43.014Z,4.70
2023-01-04T19:05:13.379Z,4.27
2023-01-04T19:07:41.897Z,4.93
2023-01-04T19:10:10.657Z,5.30
2023-01-04T19:12:40.510Z,5.33
2023-01-04T19:15:10.529Z,4.53
2023-01-04T19:17:39.090Z,5.07
2023-01-04T19:20:08.718Z,5.30
2023-01-04T19:22:37.183Z,5.10
2023-01-04T19:25:06.773Z,5.03
2023-01-04T19:27:35.734Z,4.83
2023-01-04T19:30:06.703Z,4.33
2023-01-04T19:32:35.170Z,5.77
2023-01-04T19:35:03.709Z,5.23
2023-01-04T19:37:32.191Z,4.23
2023-01-04T19:40:00.655Z,7.77
2023-01-04T19:42:29.162Z,7.50
2023-01-04T19:44:57.601Z,4.90
2023-01-04T19:47:27.385Z,5.47
2023-01-04T19:49:55.781Z,4.83
2023-01-04T19:52:24.246Z,5.33
2023-01-04T19:54:52.861Z,6.40
2023-01-04T19:57:21.297Z,4.60
2023-01-04T19:59:49.691Z,5.07
2023-01-04T20:02:18.382Z,5.17
2023-01-04T20:04:48.383Z,5.33
2023-01-04T20:07:16.838Z,5.83
2023-01-04T20:09:45.358Z,4.27
2023-01-04T20:12:13.842Z,4.73
2023-01-04T20:14:42.353Z,4.70
2023-01-04T20:17:10.899Z,4.80
2023-01-04T20:19:39.453Z,4.17
2023-01-04T20:22:10.564Z,5.07
2023-01-04T20:24:39.103Z,3.97
2023-01-04T20:27:07.612Z,5.00
2023-01-04T20:29:36.067Z,5.63
2023-01-04T20:32:04.620Z,3.17
2023-01-04T20:34:33.418Z,5.07
2023-01-04T20:37:01.868Z,4.27
2023-01-04T20:39:31.709Z,4.97
2023-01-04T20:42:17.687Z,4.80
2023-01-04T20:44:46.172Z,4.73
2023-01-04T20:47:14.629Z,3.67
2023-01-04T20:49:43.080Z,5.53
2023-01-04T20:52:11.579Z,3.60
2023-01-04T20:54:41.444Z,4.47
2023-01-04T20:57:10.011Z,4.73
2023-01-04T20:59:38.461Z,3.60
2023-01-04T21:02:07.037Z,4.00
2023-01-04T21:04:35.661Z,5.20
2023-01-04T21:07:04.122Z,4.87
2023-01-04T21:09:32.585Z,7.90
2023-01-04T21:12:06.902Z,6.57
2023-01-04T21:14:38.108Z,9.07
2023-01-04T21:17:06.659Z,5.43
2023-01-04T21:19:35.442Z,5.87
2023-01-04T21:22:04.097Z,6.40
2023-01-04T21:24:33.293Z,5.23
2023-01-04T21:27:03.629Z,4.37
2023-01-04T21:29:32.346Z,4.33
2023-01-04T21:32:00.754Z,3.63
2023-01-04T21:34:31.469Z,4.77
2023-01-04T21:37:00.025Z,3.83
2023-01-04T21:39:28.489Z,3.47
2023-01-04T21:41:57.091Z,2.60
2023-01-04T21:44:26.905Z,3.80
2023-01-04T21:46:55.458Z,3.53
2023-01-04T21:49:24.046Z,3.80
2023-01-04T21:51:52.788Z,2.83
2023-01-04T21:54:21.337Z,3.90
2023-01-04T21:56:50.514Z,3.27
2023-01-04T21:59:19.045Z,4.37
2023-01-04T22:01:49.094Z,4.00
2023-01-04T22:04:17.753Z,2.90
2023-01-04T22:06:46.262Z,3.87
2023-01-04T22:09:14.789Z,3.23
2023-01-04T22:11:43.456Z,3.10
2023-01-04T22:14:12.158Z,3.57
2023-01-04T22:16:40.722Z,3.87
2023-01-04T22:19:12.422Z,3.20
2023-01-04T22:21:41.510Z,3.43
2023-01-04T22:24:13.011Z,3.83
2023-01-04T22:26:42.336Z,4.27
2023-01-04T22:29:12.172Z,3.63
2023-01-04T22:31:40.748Z,3.00
2023-01-04T22:34:10.772Z,4.03
2023-01-04T22:36:39.213Z,3.87
2023-01-04T22:39:07.843Z,3.10
2023-01-04T22:41:36.312Z,3.87
2023-01-04T22:44:06.587Z,3.33
2023-01-04T22:46:36.775Z,3.53
2023-01-04T22:49:05.613Z,5.07
2023-01-04T22:51:35.430Z,4.13
2023-01-04T22:54:05.642Z,4.17
2023-01-04T22:56:34.276Z,4.40
2023-01-04T22:59:02.735Z,4.17
2023-01-04T23:01:33.419Z,4.53
2023-01-04T23:04:04.316Z,3.43
2023-01-04T23:06:34.803Z,4.33
2023-01-04T23:09:05.598Z,3.83
2023-01-04T23:11:35.298Z,3.80
2023-01-04T23:14:04.954Z,3.63
2023-01-04T23:16:33.825Z,3.97
2023-01-04T23:19:03.239Z,3.93
2023-01-04T23:21:32.755Z,5.13
2023-01-04T23:24:03.228Z,3.50
2023-01-04T23:26:33.213Z,3.33
2023-01-04T23:29:02.453Z,2.90
2023-01-04T23:31:33.194Z,3.40
2023-01-04T23:34:03.782Z,3.60
2023-01-04T23:36:34.233Z,3.50
2023-01-04T23:39:06.761Z,5.27
2023-01-04T23:41:47.989Z,3.77
2023-01-04T23:44:19.021Z,3.30
2023-01-04T23:46:47.927Z,4.10
2023-01-04T23:49:16.363Z,4.03
2023-01-04T23:51:44.832Z,3.60
2023-01-04T23:54:14.655Z,3.53
2023-01-04T23:56:43.361Z,4.03
2023-01-04T23:59:12.495Z,3.27
